PVK weather

Aktion National Airport
Preveza/Lefkada, Preveza, Greece

Public forecast

Using degrees Celsius for public forecast. Weather courtesy of forecast.io.

METAR (pilot weather report)

Retrieved 2019/06/18 08:20 UTC (0 seconds ago):

LGPZ 180820Z 06005KT CAVOK 28/19 Q1013

TAF (pilot weather forecast)

Retrieved 2019/06/18 06:13 UTC (2 hours ago):

TAF LGPZ 180500Z 1806/1906 05008KT 9999 FEW025 BECMG 1810/1812 27015KT FEW020 SCT080 PROB30 TEMPO 1812/1815 5000 TSRA FEW018CB BKN020 BKN070 BECMG 1815/1817 VRB05KT FEW025